Time;durP1;ratioP1;P1;durP2;ratioP2;P2;SDS_P1;SDS_P2;PMS_P1;PMS_P2;Temp;Humidity;BMP_temperature;BMP_pressure;BME280_temperature;BME280_humidity;BME280_pressure;Samples;Min_cycle;Max_cycle;Signal;HPM_P1;HPM_P2
2022/05/15 00:02:32;;;;;;;6.45;4.18;;;10.90;99.90;;;;;;6276940;22;20527;-87
2022/05/15 00:05:24;;;;;;;9.45;3.63;;;10.70;99.90;;;;;;6275804;22;20039;-87
2022/05/15 00:08:12;;;;;;;7.18;3.95;;;10.70;99.90;;;;;;6275402;22;20081;-87
2022/05/15 00:11:00;;;;;;;11.35;3.80;;;10.70;99.90;;;;;;6276026;22;20029;-88
2022/05/15 00:13:47;;;;;;;5.03;3.47;;;10.80;99.90;;;;;;6278391;22;20433;-85
2022/05/15 00:16:35;;;;;;;4.93;3.60;;;10.80;99.90;;;;;;6280267;22;20028;-86
2022/05/15 00:19:22;;;;;;;6.07;3.13;;;10.70;99.90;;;;;;6280139;22;20117;-86
2022/05/15 00:22:10;;;;;;;5.03;2.85;;;10.60;99.90;;;;;;6280531;22;20285;-87
2022/05/15 00:24:59;;;;;;;8.15;3.38;;;10.70;99.90;;;;;;6276456;22;20027;-87
2022/05/15 00:27:52;;;;;;;6.63;2.90;;;10.70;99.90;;;;;;6256818;22;20101;-86
2022/05/15 00:30:42;;;;;;;5.90;3.50;;;10.70;99.90;;;;;;6279930;22;20050;-86
2022/05/15 00:33:29;;;;;;;7.93;3.95;;;10.70;99.90;;;;;;6256888;22;20019;-86
2022/05/15 00:36:17;;;;;;;7.20;4.13;;;10.70;99.90;;;;;;6290624;22;20027;-85
2022/05/15 00:39:06;;;;;;;14.23;3.80;;;10.70;99.90;;;;;;6268113;22;20402;-86
2022/05/15 00:41:53;;;;;;;5.63;3.63;;;10.70;99.90;;;;;;6291113;22;20023;-86
2022/05/15 00:44:41;;;;;;;5.90;3.55;;;10.60;99.90;;;;;;6291587;22;20027;-86
2022/05/15 00:47:28;;;;;;;4.90;3.30;;;10.50;99.90;;;;;;6302166;22;20028;-85
2022/05/15 00:50:23;;;;;;;6.53;3.83;;;10.40;99.90;;;;;;6287529;22;20007;-85
2022/05/15 00:53:14;;;;;;;7.65;3.67;;;10.30;99.90;;;;;;6269113;22;20050;-86
2022/05/15 00:56:02;;;;;;;5.90;4.30;;;10.20;99.90;;;;;;6290217;22;20046;-86
2022/05/15 00:59:12;;;;;;;13.95;4.45;;;10.20;99.90;;;;;;6295361;22;20058;-84
2022/05/15 01:01:59;;;;;;;4.82;3.83;;;10.10;99.90;;;;;;6289567;22;20046;-86
2022/05/15 01:04:47;;;;;;;7.63;4.10;;;9.90;99.90;;;;;;6289551;22;20028;-86
2022/05/15 01:07:39;;;;;;;9.35;4.75;;;9.90;99.90;;;;;;6274711;22;20020;-88
2022/05/15 01:10:27;;;;;;;7.38;4.20;;;9.80;99.90;;;;;;6277985;22;20019;-86
2022/05/15 01:13:19;;;;;;;7.50;4.32;;;9.80;99.90;;;;;;6261696;22;20058;-87
2022/05/15 01:16:23;;;;;;;7.07;4.53;;;9.70;99.90;;;;;;6278059;22;20264;-87
2022/05/15 01:19:10;;;;;;;7.10;4.65;;;9.80;99.90;;;;;;6277727;22;20024;-86
2022/05/15 01:21:59;;;;;;;6.18;4.38;;;9.80;99.90;;;;;;6253851;22;20395;-87
2022/05/15 01:24:48;;;;;;;9.93;4.90;;;9.70;99.90;;;;;;6276276;22;20124;-86
2022/05/15 01:27:38;;;;;;;10.45;4.50;;;9.70;99.90;;;;;;6277376;22;20269;-87
2022/05/15 01:30:25;;;;;;;6.35;4.85;;;9.70;99.90;;;;;;6276846;22;20085;-88
2022/05/15 01:33:15;;;;;;;10.15;4.82;;;9.60;99.90;;;;;;6275373;22;20110;-86
2022/05/15 01:36:03;;;;;;;8.32;4.70;;;9.60;99.90;;;;;;6277251;22;20050;-83
2022/05/15 01:38:52;;;;;;;7.88;4.18;;;9.70;99.90;;;;;;6280507;22;20023;-88
2022/05/15 01:41:39;;;;;;;7.90;4.10;;;9.60;99.90;;;;;;6276784;22;20097;-87
2022/05/15 01:44:26;;;;;;;11.27;4.35;;;9.50;99.90;;;;;;6287223;22;20027;-87
2022/05/15 01:47:15;;;;;;;13.82;4.57;;;9.60;99.90;;;;;;6260100;22;20024;-87
2022/05/15 01:50:02;;;;;;;6.82;4.80;;;9.70;99.90;;;;;;6277647;22;20023;-87
2022/05/15 01:52:50;;;;;;;8.35;5.22;;;9.70;99.90;;;;;;6256977;22;20062;-87
2022/05/15 01:55:37;;;;;;;9.30;5.15;;;9.70;99.90;;;;;;6274870;22;20030;-87
2022/05/15 01:58:27;;;;;;;10.35;4.93;;;9.80;99.90;;;;;;6275519;22;20085;-86
2022/05/15 02:01:14;;;;;;;8.75;4.68;;;9.70;99.90;;;;;;6253372;22;20120;-87
2022/05/15 02:04:01;;;;;;;8.02;5.43;;;9.70;99.90;;;;;;6254108;22;20027;-85
2022/05/15 02:06:49;;;;;;;9.90;5.30;;;9.60;99.90;;;;;;6253072;22;20081;-86
2022/05/15 02:09:39;;;;;;;6.88;4.45;;;9.50;99.90;;;;;;6276042;22;20319;-86
2022/05/15 02:12:27;;;;;;;10.80;4.80;;;9.60;99.90;;;;;;6275237;22;20028;-87
2022/05/15 02:15:15;;;;;;;7.30;4.75;;;9.60;99.90;;;;;;6277901;22;20019;-84
2022/05/15 02:18:02;;;;;;;7.18;4.47;;;9.50;99.90;;;;;;6276259;22;20027;-86
2022/05/15 02:20:49;;;;;;;11.85;4.53;;;9.50;99.90;;;;;;6276258;22;20035;-87
2022/05/15 02:23:39;;;;;;;8.27;5.63;;;9.40;99.90;;;;;;6274870;22;20028;-86
2022/05/15 02:26:27;;;;;;;8.25;4.47;;;9.30;99.90;;;;;;6252820;22;20058;-86
2022/05/15 02:29:16;;;;;;;8.02;4.88;;;9.40;99.90;;;;;;6254954;22;20165;-87
2022/05/15 02:32:04;;;;;;;10.48;5.30;;;9.40;99.90;;;;;;6276439;22;20027;-87
2022/05/15 02:34:54;;;;;;;10.07;4.82;;;9.40;99.90;;;;;;6252547;22;20348;-87
2022/05/15 02:37:41;;;;;;;7.22;4.28;;;9.40;99.90;;;;;;6255554;22;20114;-87
2022/05/15 02:40:31;;;;;;;10.90;4.80;;;9.30;99.90;;;;;;6253863;22;20295;-86
2022/05/15 02:43:18;;;;;;;13.55;5.72;;;9.20;99.90;;;;;;6277723;22;20083;-85
2022/05/15 02:46:06;;;;;;;10.18;4.82;;;9.20;99.90;;;;;;6256122;22;20096;-86
2022/05/15 02:51:59;;;;;;;8.40;4.90;;;9.00;99.90;;;;;;6275917;22;20419;-87
2022/05/15 02:54:46;;;;;;;8.90;5.03;;;9.10;99.90;;;;;;6277606;22;20624;-87
2022/05/15 02:57:33;;;;;;;4.97;4.32;;;9.20;99.90;;;;;;6255334;22;20030;-86
2022/05/15 03:00:26;;;;;;;8.63;4.97;;;9.20;99.90;;;;;;6278208;22;20039;-86
2022/05/15 03:03:13;;;;;;;;;;;9.10;99.90;;;;;;6279622;22;20453;-86
2022/05/15 03:06:28;;;;;;;12.32;4.32;;;9.10;99.90;;;;;;6274597;22;19915;-87
2022/05/15 03:09:16;;;;;;;11.80;5.00;;;9.00;99.90;;;;;;6270367;22;20019;-84
2022/05/15 03:12:03;;;;;;;7.10;4.47;;;9.10;99.90;;;;;;6270811;22;20403;-85
2022/05/15 03:14:53;;;;;;;10.18;4.43;;;9.10;99.90;;;;;;6255623;22;20406;-87
2022/05/15 03:17:56;;;;;;;11.15;4.70;;;9.20;99.90;;;;;;6256160;22;20023;-87
2022/05/15 03:20:44;;;;;;;7.20;5.13;;;9.10;99.90;;;;;;6273647;22;20031;-87
2022/05/15 03:23:31;;;;;;;10.23;5.13;;;9.00;99.90;;;;;;6252588;22;20019;-86
2022/05/15 03:26:21;;;;;;;12.70;4.75;;;8.90;99.90;;;;;;6254212;22;20081;-86
2022/05/15 03:29:09;;;;;;;7.95;4.65;;;8.90;99.90;;;;;;6251807;22;20023;-86
2022/05/15 03:31:57;;;;;;;7.30;4.85;;;8.90;99.90;;;;;;6274806;22;20047;-86
2022/05/15 03:34:44;;;;;;;6.80;4.63;;;8.90;99.90;;;;;;6256765;22;20289;-84
2022/05/15 03:37:32;;;;;;;7.72;5.18;;;8.90;99.90;;;;;;6277349;22;20028;-88
2022/05/15 03:40:28;;;;;;;7.32;5.13;;;8.80;99.90;;;;;;6253463;22;20035;-84
2022/05/15 03:43:15;;;;;;;6.28;4.75;;;8.80;99.90;;;;;;6276578;22;20031;-87
2022/05/15 03:46:04;;;;;;;9.80;4.78;;;8.80;99.90;;;;;;6276506;22;20042;-88
2022/05/15 03:48:52;;;;;;;7.88;4.55;;;8.80;99.90;;;;;;6276386;22;20030;-87
2022/05/15 03:51:40;;;;;;;7.10;4.45;;;8.80;99.90;;;;;;6277122;22;20055;-87
2022/05/15 03:54:27;;;;;;;5.93;4.43;;;8.80;99.90;;;;;;6276761;22;20300;-87
2022/05/15 03:57:14;;;;;;;8.25;4.72;;;8.90;99.90;;;;;;6255083;22;20019;-86
2022/05/15 04:00:03;;;;;;;6.15;4.47;;;8.90;99.90;;;;;;6278180;22;20059;-87
2022/05/15 04:02:50;;;;;;;5.30;4.13;;;8.80;99.90;;;;;;6258237;22;20148;-85
2022/05/15 04:05:38;;;;;;;6.90;4.28;;;8.70;99.90;;;;;;6256234;22;20031;-86
2022/05/15 04:08:27;;;;;;;7.00;4.68;;;8.70;99.90;;;;;;6278590;22;20288;-88
2022/05/15 04:11:26;;;;;;;7.75;4.63;;;8.70;99.90;;;;;;6258035;22;20031;-86
2022/05/15 04:14:16;;;;;;;5.63;4.28;;;8.90;99.90;;;;;;6260969;22;20024;-88
2022/05/15 04:17:03;;;;;;;9.80;4.80;;;8.90;99.90;;;;;;6265403;22;20023;-86
2022/05/15 04:19:53;;;;;;;7.13;4.00;;;9.00;99.90;;;;;;6285312;22;20028;-84
2022/05/15 04:22:40;;;;;;;6.55;4.00;;;9.10;99.90;;;;;;6256770;22;20038;-87
2022/05/15 04:25:28;;;;;;;8.10;4.10;;;9.10;99.90;;;;;;6280004;22;20028;-89
2022/05/15 04:28:17;;;;;;;9.63;4.57;;;9.10;99.90;;;;;;6257073;22;20097;-88
2022/05/15 04:31:04;;;;;;;10.35;4.78;;;9.10;99.90;;;;;;6255097;22;20093;-88
2022/05/15 04:33:52;;;;;;;6.82;3.90;;;9.20;99.90;;;;;;6279725;22;20415;-86
2022/05/15 04:36:41;;;;;;;7.82;4.22;;;9.40;99.90;;;;;;6280279;22;20024;-88
2022/05/15 04:39:33;;;;;;;6.03;3.78;;;9.60;99.90;;;;;;6276772;22;20035;-88
2022/05/15 04:42:23;;;;;;;8.20;4.00;;;9.60;99.90;;;;;;6256788;22;20093;-89
2022/05/15 04:45:11;;;;;;;8.27;4.57;;;9.80;99.90;;;;;;6257941;22;20028;-86
2022/05/15 04:47:58;;;;;;;6.80;3.95;;;10.00;99.90;;;;;;6260780;22;20023;-87
2022/05/15 04:50:45;;;;;;;7.10;3.50;;;10.00;99.90;;;;;;6283171;22;20032;-88
2022/05/15 04:53:33;;;;;;;7.43;3.22;;;10.10;99.90;;;;;;6279388;22;20020;-88
2022/05/15 04:56:22;;;;;;;4.43;3.30;;;10.10;99.90;;;;;;6278862;22;20288;-87
2022/05/15 05:02:47;;;;;;;5.00;3.90;;;10.30;99.90;;;;;;6185696;23;20021;-88
2022/05/15 05:06:37;;;;;;;7.05;3.80;;;10.40;99.90;;;;;;6080674;23;21101;-86
2022/05/15 05:17:45;;;;;;;8.75;3.83;;;10.90;99.90;;;;;;6186413;23;20220;-86
2022/05/15 05:20:35;;;;;;;8.50;3.40;;;11.10;99.90;;;;;;6253411;22;20023;-88
2022/05/15 05:23:24;;;;;;;6.88;3.88;;;11.30;99.90;;;;;;6278266;22;20039;-88
2022/05/15 05:26:12;;;;;;;7.40;3.20;;;11.60;99.90;;;;;;6281440;22;20027;-90
2022/05/15 05:29:01;;;;;;;8.55;3.33;;;11.70;99.90;;;;;;6282540;22;20340;-87
2022/05/15 05:31:50;;;;;;;6.18;3.22;;;11.90;99.90;;;;;;6259944;22;20030;-87
2022/05/15 05:34:38;;;;;;;6.25;3.60;;;12.00;99.90;;;;;;6257754;22;20269;-87
2022/05/15 05:37:26;;;;;;;6.32;3.40;;;12.10;99.90;;;;;;6260283;22;20291;-89
2022/05/15 05:40:14;;;;;;;5.88;3.47;;;12.10;99.90;;;;;;6280533;22;20097;-88
2022/05/15 05:43:02;;;;;;;5.47;3.00;;;12.30;99.90;;;;;;6278169;22;20101;-89
2022/05/15 05:45:51;;;;;;;4.80;2.58;;;12.40;99.90;;;;;;6281102;22;20380;-88
2022/05/15 05:48:46;;;;;;;6.32;2.92;;;12.60;99.90;;;;;;6261184;22;20395;-89
2022/05/15 05:51:35;;;;;;;6.75;2.97;;;12.70;99.90;;;;;;6261392;22;20027;-88
2022/05/15 05:54:30;;;;;;;7.22;3.25;;;12.90;99.90;;;;;;6289027;22;20054;-89
2022/05/15 05:57:17;;;;;;;6.28;3.55;;;13.00;99.90;;;;;;6294325;22;20099;-89
2022/05/15 06:00:08;;;;;;;10.90;4.30;;;13.10;99.90;;;;;;6270974;22;20035;-88
2022/05/15 06:04:39;;;;;;;6.50;3.70;;;13.20;99.90;;;;;;6296272;22;20024;-89
2022/05/15 06:06:03;;;;;;;8.15;3.92;;;13.30;99.90;;;;;;6294820;22;20118;-89
2022/05/15 06:08:50;;;;;;;7.95;3.85;;;13.40;99.90;;;;;;6299627;22;20115;-85
2022/05/15 06:11:42;;;;;;;7.38;3.50;;;13.60;99.90;;;;;;6293905;22;20020;-88
2022/05/15 06:14:29;;;;;;;4.90;3.37;;;13.60;99.90;;;;;;6290806;22;20309;-88
2022/05/15 06:17:26;;;;;;;6.43;3.33;;;13.80;99.90;;;;;;6288663;22;20024;-90
2022/05/15 06:20:14;;;;;;;5.07;3.20;;;14.10;99.90;;;;;;6292739;22;20016;-88
2022/05/15 06:23:02;;;;;;;7.13;3.40;;;14.40;99.90;;;;;;6287298;22;20110;-88
2022/05/15 06:25:50;;;;;;;8.93;3.13;;;14.70;99.90;;;;;;6291539;22;20028;-89
2022/05/15 06:28:37;;;;;;;5.00;3.03;;;15.10;99.90;;;;;;6272920;22;20061;-84
2022/05/15 06:31:25;;;;;;;9.35;3.53;;;15.40;99.90;;;;;;6262886;22;20039;-85
2022/05/15 06:34:13;;;;;;;4.22;2.35;;;15.80;99.90;;;;;;6282945;22;20007;-83
2022/05/15 06:37:03;;;;;;;3.97;2.97;;;16.10;99.90;;;;;;6293776;22;20046;-84
2022/05/15 06:39:57;;;;;;;7.05;3.20;;;16.40;99.90;;;;;;6280824;22;20024;-84
2022/05/15 06:42:45;;;;;;;7.15;2.70;;;16.70;99.90;;;;;;6264758;22;20023;-85
2022/05/15 06:45:32;;;;;;;6.22;2.20;;;17.00;99.90;;;;;;6285644;22;20019;-85
2022/05/15 06:48:19;;;;;;;4.82;2.50;;;17.40;99.90;;;;;;6280474;22;20020;-87
2022/05/15 06:51:14;;;;;;;3.42;2.00;;;17.80;99.90;;;;;;6279945;22;20322;-86
2022/05/15 06:54:01;;;;;;;3.00;1.60;;;18.20;99.90;;;;;;6275576;22;20023;-86
2022/05/15 07:00:10;;;;;;;3.35;1.60;;;19.20;94.70;;;;;;6263203;22;20031;-87
2022/05/15 07:02:57;;;;;;;4.45;2.05;;;19.70;92.80;;;;;;6283307;22;20034;-87
2022/05/15 07:05:45;;;;;;;3.38;1.90;;;20.10;92.70;;;;;;6282469;22;20035;-86
2022/05/15 07:08:32;;;;;;;3.85;1.88;;;20.50;88.20;;;;;;6283659;22;20027;-85
2022/05/15 07:11:19;;;;;;;5.65;2.17;;;20.80;83.70;;;;;;6283611;22;20410;-86
2022/05/15 07:14:08;;;;;;;9.77;2.50;;;21.10;81.40;;;;;;6278912;22;20020;-84
2022/05/15 07:16:55;;;;;;;9.73;2.17;;;21.30;83.40;;;;;;6277758;22;20042;-85
2022/05/15 07:19:44;;;;;;;4.32;1.77;;;21.60;78.70;;;;;;6255293;22;20052;-85
2022/05/15 07:22:33;;;;;;;4.07;2.08;;;21.80;76.80;;;;;;6280971;22;20115;-88
2022/05/15 07:25:20;;;;;;;3.05;1.75;;;21.80;71.90;;;;;;6283278;22;20028;-87
2022/05/15 07:28:10;;;;;;;4.95;1.90;;;22.00;69.50;;;;;;6260316;22;20027;-88
2022/05/15 07:30:57;;;;;;;5.22;1.35;;;22.30;67.50;;;;;;6260745;22;20028;-87
2022/05/15 07:33:49;;;;;;;5.32;1.70;;;22.70;71.10;;;;;;6259483;22;20135;-88
2022/05/15 07:36:39;;;;;;;4.97;1.67;;;23.10;63.10;;;;;;6280645;22;20075;-86
2022/05/15 07:39:29;;;;;;;5.20;1.73;;;23.20;67.90;;;;;;6282548;22;20020;-89
2022/05/15 07:42:19;;;;;;;5.55;1.77;;;23.50;61.40;;;;;;6284150;22;20331;-88
2022/05/15 07:45:08;;;;;;;3.90;1.80;;;24.00;67.40;;;;;;6281807;22;20019;-86
2022/05/15 07:47:55;;;;;;;4.93;1.35;;;24.50;59.80;;;;;;6278765;22;20025;-87
2022/05/15 07:50:43;;;;;;;6.03;1.52;;;24.70;63.20;;;;;;6275302;22;20066;-85
2022/05/15 07:53:30;;;;;;;4.50;1.70;;;24.50;59.10;;;;;;6277176;22;20472;-88
2022/05/15 07:56:18;;;;;;;6.70;1.75;;;24.50;61.50;;;;;;6278184;22;20419;-86
2022/05/15 07:59:05;;;;;;;4.88;1.33;;;24.90;64.00;;;;;;6257556;22;20030;-85
2022/05/15 08:01:55;;;;;;;2.97;1.67;;;25.20;62.00;;;;;;6277174;22;20338;-87
2022/05/15 08:08:02;;;;;;;5.68;2.00;;;25.40;56.10;;;;;;6278134;22;20078;-85
2022/05/15 08:10:53;;;;;;;3.25;1.77;;;25.10;59.40;;;;;;6258017;22;20047;-87
2022/05/15 08:13:41;;;;;;;3.38;1.45;;;25.40;57.10;;;;;;6255420;22;20035;-86
2022/05/15 08:16:29;;;;;;;4.63;1.55;;;25.70;55.60;;;;;;6255747;22;20051;-88
2022/05/15 08:25:28;;;;;;;4.90;1.50;;;25.90;51.80;;;;;;6275322;22;20049;-87
2022/05/15 08:28:16;;;;;;;2.70;1.50;;;25.80;51.60;;;;;;6279770;22;20361;-88
2022/05/15 08:31:08;;;;;;;3.40;1.30;;;26.00;52.80;;;;;;6274406;22;20302;-84
2022/05/15 08:33:58;;;;;;;4.47;1.45;;;26.10;51.20;;;;;;6281036;22;20034;-86
2022/05/15 08:36:47;;;;;;;3.70;1.25;;;26.50;51.90;;;;;;6276420;22;20051;-85
2022/05/15 08:39:37;;;;;;;6.10;1.35;;;26.70;51.30;;;;;;6279164;22;20031;-88
2022/05/15 08:42:36;;;;;;;4.97;1.30;;;26.90;49.90;;;;;;6280924;22;20016;-87
2022/05/15 08:45:27;;;;;;;4.07;1.60;;;27.10;51.50;;;;;;6277177;22;20023;-89
2022/05/15 08:48:16;;;;;;;2.38;1.60;;;27.60;47.20;;;;;;6279879;22;20054;-83
2022/05/15 08:51:09;;;;;;;5.13;1.20;;;26.80;47.30;;;;;;6253444;22;20024;-84
2022/05/15 08:53:59;;;;;;;3.38;1.25;;;27.00;48.60;;;;;;6257067;22;20049;-87
2022/05/15 08:56:50;;;;;;;3.03;1.10;;;27.00;50.10;;;;;;6275332;22;20023;-85
2022/05/15 08:59:53;;;;;;;3.85;1.15;;;27.00;48.00;;;;;;6275935;22;20046;-88
2022/05/15 09:02:42;;;;;;;5.25;1.20;;;26.50;49.20;;;;;;6276627;22;20039;-89
2022/05/15 09:05:36;;;;;;;2.90;1.20;;;27.10;50.30;;;;;;6275495;22;20027;-85
2022/05/15 09:08:41;;;;;;;6.47;1.35;;;27.50;48.10;;;;;;6276040;22;20414;-86
2022/05/15 09:11:57;;;;;;;4.63;1.30;;;28.10;48.20;;;;;;6252680;22;20354;-87
2022/05/15 09:15:07;;;;;;;5.03;1.30;;;29.00;47.70;;;;;;6255392;22;20315;-91
2022/05/15 09:18:02;;;;;;;6.75;1.48;;;29.30;45.40;;;;;;6276784;22;20027;-89
2022/05/15 09:20:52;;;;;;;2.65;1.00;;;29.60;47.50;;;;;;6278483;22;20026;-89
2022/05/15 09:23:42;;;;;;;5.13;1.10;;;29.50;45.00;;;;;;6255490;22;20043;-90
2022/05/15 09:26:48;;;;;;;7.30;1.33;;;29.40;44.80;;;;;;6254690;22;20020;-89
2022/05/15 09:29:35;;;;;;;2.53;1.15;;;29.30;46.70;;;;;;6255203;22;20023;-88
2022/05/15 09:32:27;;;;;;;5.05;1.40;;;28.80;44.40;;;;;;6259343;22;20041;-88
2022/05/15 09:35:35;;;;;;;1.30;1.00;;;28.60;46.10;;;;;;6256497;22;20024;-88
2022/05/15 09:38:28;;;;;;;4.03;1.08;;;29.10;44.60;;;;;;6256143;22;20055;-91
2022/05/15 09:44:41;;;;;;;2.80;1.30;;;30.00;45.60;;;;;;6292208;22;20032;-88
2022/05/15 09:47:39;;;;;;;4.47;1.23;;;29.80;46.60;;;;;;6294180;22;20065;-88
2022/05/15 09:50:55;;;;;;;6.57;1.60;;;30.40;45.20;;;;;;6293297;22;20027;-89
2022/05/15 09:54:00;;;;;;;3.95;1.20;;;30.10;44.10;;;;;;6269816;22;20035;-90
2022/05/15 09:57:19;;;;;;;4.72;1.60;;;29.70;44.50;;;;;;6280325;22;20024;-81
2022/05/15 10:00:14;;;;;;;3.90;1.55;;;30.20;44.50;;;;;;6296253;22;20058;-90
2022/05/15 10:03:23;;;;;;;3.70;1.13;;;30.50;41.80;;;;;;6287132;22;20019;-84
2022/05/15 10:06:10;;;;;;;2.28;1.20;;;30.80;41.30;;;;;;6288060;22;20027;-88
2022/05/15 10:09:05;;;;;;;3.92;1.35;;;30.50;42.20;;;;;;6287838;22;20031;-88
2022/05/15 10:11:59;;;;;;;4.65;1.38;;;30.20;42.50;;;;;;6261207;22;20024;-89
2022/05/15 10:14:59;;;;;;;5.70;1.20;;;30.30;43.10;;;;;;6278080;22;20027;-87
2022/05/15 10:17:58;;;;;;;4.00;1.33;;;30.40;41.70;;;;;;6277699;22;20047;-86
2022/05/15 10:20:51;;;;;;;2.20;1.10;;;30.50;44.30;;;;;;6256946;22;20020;-85
2022/05/15 10:23:55;;;;;;;5.28;1.58;;;31.20;44.60;;;;;;6277432;22;20020;-89
2022/05/15 10:27:04;;;;;;;3.80;1.35;;;31.10;40.20;;;;;;6279491;22;20028;-87
2022/05/15 10:30:08;;;;;;;4.03;1.70;;;30.60;42.70;;;;;;6279119;22;20391;-86
2022/05/15 10:33:05;;;;;;;3.60;1.30;;;30.80;40.20;;;;;;6277511;22;20035;-86
2022/05/15 10:36:18;;;;;;;3.20;1.30;;;30.90;41.30;;;;;;6253633;22;20028;-85
2022/05/15 10:40:00;;;;;;;6.03;1.50;;;31.20;42.10;;;;;;6259411;22;20023;-88
2022/05/15 10:43:15;;;;;;;4.13;1.35;;;30.70;40.20;;;;;;6290113;22;20024;-89
2022/05/15 10:46:44;;;;;;;6.05;1.40;;;31.20;41.40;;;;;;6283883;22;20019;-90
2022/05/15 10:50:12;;;;;;;2.90;1.85;;;30.90;41.70;;;;;;6145629;23;20417;-86
2022/05/15 11:00:26;;;;;;;3.83;1.38;;;32.30;41.30;;;;;;6280885;22;20031;-88
2022/05/15 11:03:35;;;;;;;3.10;1.40;;;32.90;38.10;;;;;;6281109;22;20407;-89
2022/05/15 11:06:46;;;;;;;2.42;1.23;;;33.10;38.60;;;;;;6279011;22;20027;-90
2022/05/15 11:09:46;;;;;;;3.20;1.20;;;32.80;39.00;;;;;;6265941;22;20043;-91
2022/05/15 11:13:09;;;;;;;3.03;1.20;;;32.80;39.70;;;;;;6281830;22;20058;-90
2022/05/15 11:16:15;;;;;;;2.50;1.10;;;33.00;39.40;;;;;;6258163;22;20077;-88
2022/05/15 11:19:27;;;;;;;5.63;1.58;;;32.50;36.40;;;;;;6277543;22;20328;-88
2022/05/15 11:22:28;;;;;;;6.57;1.80;;;32.60;37.70;;;;;;6277328;22;20024;-89
2022/05/15 11:25:27;;;;;;;2.58;1.20;;;32.10;40.00;;;;;;6254722;22;20020;-85
2022/05/15 11:28:39;;;;;;;3.33;1.30;;;32.40;38.00;;;;;;6283668;22;20024;-88
2022/05/15 11:31:32;;;;;;;8.13;1.35;;;31.80;39.10;;;;;;6284929;22;20030;-90
2022/05/15 11:34:20;;;;;;;2.92;1.30;;;31.50;39.80;;;;;;6277434;22;20023;-88
2022/05/15 11:37:40;;;;;;;3.92;1.20;;;32.20;37.50;;;;;;6277244;22;20024;-88
2022/05/15 11:40:30;;;;;;;3.30;1.13;;;32.10;37.60;;;;;;6276125;22;20369;-86
2022/05/15 11:43:28;;;;;;;2.17;1.17;;;33.00;37.60;;;;;;6278040;22;20311;-89
2022/05/15 11:46:16;;;;;;;6.05;1.42;;;33.40;36.90;;;;;;6278621;22;20050;-87
2022/05/15 11:49:15;;;;;;;2.47;1.00;;;33.00;39.30;;;;;;6277094;22;20024;-88
2022/05/15 11:52:05;;;;;;;3.58;1.33;;;33.60;37.20;;;;;;6278769;22;20081;-87
2022/05/15 11:54:55;;;;;;;5.93;1.20;;;33.00;36.60;;;;;;6256187;22;20030;-91
2022/05/15 11:57:46;;;;;;;1.92;1.30;;;32.70;37.70;;;;;;6280706;22;20050;-88
2022/05/15 12:00:33;;;;;;;3.13;1.40;;;33.20;34.90;;;;;;6257317;22;20031;-90
2022/05/15 12:03:38;;;;;;;2.70;1.20;;;33.30;37.30;;;;;;6280954;22;20023;-88
2022/05/15 12:06:31;;;;;;;4.25;1.50;;;33.00;36.00;;;;;;6283377;22;20055;-91
2022/05/15 12:09:22;;;;;;;3.60;1.55;;;33.10;36.40;;;;;;6260179;22;20415;-88
2022/05/15 12:12:30;;;;;;;4.00;1.73;;;32.60;36.50;;;;;;6280621;22;20023;-91
2022/05/15 12:15:19;;;;;;;2.95;1.25;;;32.50;38.20;;;;;;6279729;22;20103;-91
2022/05/15 12:18:18;;;;;;;5.68;1.38;;;32.30;36.70;;;;;;6277667;22;20272;-91
2022/05/15 12:21:09;;;;;;;3.88;1.73;;;32.90;37.00;;;;;;6279215;22;20093;-85
2022/05/15 12:27:23;;;;;;;5.20;1.50;;;32.00;37.10;;;;;;6277903;22;20257;-85
2022/05/15 12:30:24;;;;;;;3.95;1.25;;;31.30;36.10;;;;;;6277206;22;20019;-89
2022/05/15 12:33:17;;;;;;;4.60;1.20;;;31.70;38.40;;;;;;6278335;22;20307;-87
2022/05/15 12:36:12;;;;;;;5.47;1.17;;;32.30;37.40;;;;;;6278102;22;20109;-87
2022/05/15 12:39:00;;;;;;;4.25;1.38;;;33.30;35.30;;;;;;6277536;22;20016;-92
2022/05/15 12:41:50;;;;;;;2.17;1.23;;;33.00;35.30;;;;;;6260135;22;20039;-90
2022/05/15 12:44:38;;;;;;;3.95;1.35;;;33.20;35.90;;;;;;6281107;22;20027;-90
2022/05/15 12:47:32;;;;;;;2.88;1.27;;;32.90;35.00;;;;;;6256445;22;20023;-87
2022/05/15 12:50:21;;;;;;;4.15;1.67;;;32.50;35.60;;;;;;6281860;22;20024;-89
2022/05/15 12:53:21;;;;;;;3.45;1.38;;;33.00;36.50;;;;;;6280490;22;20033;-90
2022/05/15 12:56:24;;;;;;;1.88;1.10;;;33.70;33.30;;;;;;6280743;22;20019;-91
2022/05/15 12:59:21;;;;;;;4.28;1.35;;;34.00;33.50;;;;;;6280620;22;20028;-89
2022/05/15 13:02:16;;;;;;;4.07;1.23;;;33.60;34.70;;;;;;6277343;22;20028;-91
2022/05/15 13:05:25;;;;;;;3.92;1.45;;;33.50;35.30;;;;;;6265582;22;20031;-90
2022/05/15 13:08:18;;;;;;;3.47;1.20;;;34.20;34.50;;;;;;6297644;22;20129;-88
2022/05/15 13:11:06;;;;;;;10.77;1.48;;;34.60;30.00;;;;;;6300720;22;20039;-90
2022/05/15 13:13:55;;;;;;;4.15;1.27;;;34.40;33.50;;;;;;6293508;22;20024;-89
2022/05/15 13:16:54;;;;;;;3.30;1.25;;;34.30;32.10;;;;;;6275685;22;20062;-83
2022/05/15 13:19:44;;;;;;;5.65;1.60;;;34.00;36.00;;;;;;6296299;22;20020;-90
2022/05/15 13:22:34;;;;;;;2.80;1.10;;;33.90;35.10;;;;;;6288038;22;20028;-91
2022/05/15 13:25:44;;;;;;;2.78;1.23;;;33.40;34.30;;;;;;6295151;22;20086;-88
2022/05/15 13:28:56;;;;;;;3.28;1.27;;;32.40;36.00;;;;;;6292903;22;20066;-89
2022/05/15 13:31:54;;;;;;;;;;;32.30;34.50;;;;;;6263582;22;20077;-89
2022/05/15 13:34:42;;;;;;;7.13;1.30;;;31.70;35.20;;;;;;6287116;22;19939;-90
2022/05/15 13:37:35;;;;;;;5.63;1.20;;;31.50;36.50;;;;;;6260968;22;20054;-91
2022/05/15 13:44:08;;;;;;;3.60;1.05;;;33.10;33.80;;;;;;6280096;22;20023;-88
2022/05/15 13:47:02;;;;;;;2.05;1.00;;;33.10;35.70;;;;;;6278677;22;20074;-91
2022/05/15 13:49:55;;;;;;;1.60;1.10;;;32.90;34.90;;;;;;6277249;22;20055;-90
2022/05/15 13:52:42;;;;;;;3.15;1.35;;;32.80;35.30;;;;;;6255921;22;20097;-89
2022/05/15 13:55:39;;;;;;;2.78;1.20;;;32.60;33.80;;;;;;6279138;22;20390;-89
2022/05/15 13:58:50;;;;;;;3.10;1.50;;;32.60;33.90;;;;;;6276912;22;20050;-87
2022/05/15 14:01:37;;;;;;;3.53;1.52;;;32.40;31.60;;;;;;6277309;22;20027;-90
2022/05/15 14:04:59;;;;;;;2.35;1.23;;;33.60;36.90;;;;;;6263305;22;20024;-89
2022/05/15 14:07:48;;;;;;;3.95;1.60;;;33.40;35.20;;;;;;6276321;22;20027;-91
2022/05/15 14:10:36;;;;;;;2.22;1.30;;;31.90;34.70;;;;;;6280529;22;20077;-91
2022/05/15 14:13:29;;;;;;;2.97;1.33;;;32.00;36.00;;;;;;6279282;22;20019;-89
2022/05/15 14:16:21;;;;;;;3.58;1.20;;;32.50;34.20;;;;;;6261077;22;20020;-92
2022/05/15 14:19:15;;;;;;;6.15;1.30;;;33.40;34.20;;;;;;6260365;22;20300;-91
2022/05/15 14:22:07;;;;;;;3.30;1.00;;;33.20;34.60;;;;;;6283235;22;20023;-92
2022/05/15 14:24:57;;;;;;;5.82;1.33;;;32.90;36.30;;;;;;6257824;22;20354;-94
2022/05/15 14:27:44;;;;;;;2.60;1.35;;;33.80;31.30;;;;;;6283323;22;20032;-92
2022/05/15 14:30:35;;;;;;;2.22;1.13;;;34.10;32.70;;;;;;6286069;22;20019;-91
2022/05/15 14:33:25;;;;;;;4.32;1.30;;;33.70;33.10;;;;;;6282240;22;20081;-92
2022/05/15 14:36:15;;;;;;;3.90;1.42;;;33.20;33.00;;;;;;6280036;22;20147;-92
2022/05/15 14:39:05;;;;;;;3.50;1.20;;;33.10;34.60;;;;;;6256164;22;20020;-90
2022/05/15 14:41:53;;;;;;;5.00;1.48;;;33.00;35.90;;;;;;6278730;22;20027;-91
2022/05/15 14:44:41;;;;;;;7.35;1.60;;;32.20;34.30;;;;;;6256910;22;20035;-86
2022/05/15 14:47:36;;;;;;;5.22;1.10;;;31.50;34.00;;;;;;6284736;22;20023;-92
2022/05/15 14:50:24;;;;;;;3.17;1.50;;;32.00;35.20;;;;;;6283770;22;20110;-91
2022/05/15 14:53:20;;;;;;;1.60;1.15;;;32.80;36.90;;;;;;6287457;22;20027;-84
2022/05/15 14:56:08;;;;;;;7.78;1.70;;;33.40;34.80;;;;;;6263600;22;20035;-88
2022/05/15 14:59:01;;;;;;;4.10;1.55;;;33.60;35.30;;;;;;6292707;22;20386;-89
2022/05/15 15:01:49;;;;;;;4.25;1.17;;;32.80;34.20;;;;;;6290224;22;20023;-89
2022/05/15 15:04:41;;;;;;;2.25;1.08;;;31.60;34.90;;;;;;6271236;22;20137;-91
2022/05/15 15:07:32;;;;;;;3.95;1.15;;;31.40;36.80;;;;;;6265507;22;20023;-88
2022/05/15 15:10:20;;;;;;;4.00;1.17;;;30.70;36.10;;;;;;6283610;22;20036;-86
2022/05/15 15:13:08;;;;;;;4.53;1.48;;;29.90;38.00;;;;;;6260514;22;20123;-91
2022/05/15 15:15:59;;;;;;;3.15;1.35;;;29.90;40.10;;;;;;6280972;22;20023;-89
2022/05/15 15:18:49;;;;;;;7.95;1.50;;;29.90;39.50;;;;;;6281032;22;20092;-87
2022/05/15 15:21:40;;;;;;;6.57;1.58;;;29.80;40.40;;;;;;6258827;22;20075;-92
2022/05/15 15:24:28;;;;;;;3.28;1.55;;;29.10;39.00;;;;;;6257907;22;20043;-89
2022/05/15 15:27:16;;;;;;;3.17;1.48;;;28.60;40.00;;;;;;6279902;22;20054;-89
2022/05/15 15:30:04;;;;;;;3.33;1.50;;;28.70;40.60;;;;;;6287262;22;20028;-88
2022/05/15 15:32:58;;;;;;;7.55;2.03;;;28.30;41.00;;;;;;6269332;22;20380;-87
2022/05/15 15:35:53;;;;;;;4.80;1.83;;;28.20;44.10;;;;;;6294212;22;20034;-89
2022/05/15 15:38:40;;;;;;;6.28;2.22;;;28.30;42.50;;;;;;6296482;22;20439;-87
2022/05/15 15:41:30;;;;;;;7.40;3.50;;;28.30;41.90;;;;;;6292223;22;20020;-88
2022/05/15 15:44:20;;;;;;;7.28;2.25;;;28.30;43.10;;;;;;6300392;22;20026;-82
2022/05/15 15:47:09;;;;;;;7.57;2.55;;;28.20;42.10;;;;;;6275989;22;20023;-89